EJU78D EDFH-LIMC
Flight info
| Callsign | EJU78D |
|---|---|
| Flight time | N/A |
| Altitude | 35000 |
| Route | ULKIG1L ULKIG Y180 DONAB Z114 ODAVU Y163 ANEKI/N0413F370 Y163 NATOR/N0399F330 N850 DEGAD/N0412F370 Z424 BASGO/N0371F290 Z424 AKASU/N0321F190 Z424 RIXUV |
| Aircraft | A21N/M-SDE2E3FGHIRWXY/LB1 |
Departure
| Time | 2026-05-01 13:51 |
|---|---|
| Airport | Frankfurt-Hahn Airport (EDFH) |
Arrival
| Time | N/A |
|---|---|
| Airport | Milan Malpensa International Airport (LIMC) |
| Time | Latitude | Longitude | Altitude | Speed | Heading |
|---|---|---|---|---|---|
| 2026-05-01 13:40 | 49.95420 | 7.27489 | 1588 ft | 2 kts | 91° |
| 2026-05-01 13:40 | 49.95421 | 7.27465 | 1588 ft | 2 kts | 94° |
| 2026-05-01 13:40 | 49.95422 | 7.27447 | 1588 ft | 0 kts | 94° |
| 2026-05-01 13:41 | 49.95421 | 7.27427 | 1588 ft | 2 kts | 69° |
| 2026-05-01 13:41 | 49.95413 | 7.27407 | 1589 ft | 2 kts | 41° |
| 2026-05-01 13:41 | 49.95409 | 7.27402 | 1589 ft | 0 kts | 31° |
| 2026-05-01 13:41 | 49.95417 | 7.27412 | 1588 ft | 0 kts | 36° |
| 2026-05-01 13:46 | 49.95426 | 7.27421 | 1588 ft | 3 kts | 34° |
| 2026-05-01 13:46 | 49.95448 | 7.27443 | 1589 ft | 4 kts | 31° |
| 2026-05-01 13:47 | 49.95497 | 7.27490 | 1591 ft | 9 kts | 33° |
| 2026-05-01 13:47 | 49.95554 | 7.27546 | 1590 ft | 8 kts | 24° |
| 2026-05-01 13:47 | 49.95614 | 7.27522 | 1591 ft | 10 kts | 324° |
| 2026-05-01 13:47 | 49.95671 | 7.27463 | 1591 ft | 9 kts | 327° |
| 2026-05-01 13:48 | 49.95704 | 7.27428 | 1590 ft | 0 kts | 326° |
| 2026-05-01 13:48 | 49.95705 | 7.27428 | 1590 ft | 0 kts | 326° |
| 2026-05-01 13:49 | 49.95705 | 7.27427 | 1590 ft | 1 kts | 326° |
| 2026-05-01 13:49 | 49.95731 | 7.27395 | 1590 ft | 3 kts | 310° |
| 2026-05-01 13:49 | 49.95751 | 7.27348 | 1589 ft | 6 kts | 302° |
| 2026-05-01 13:49 | 49.95760 | 7.27278 | 1588 ft | 7 kts | 244° |
| 2026-05-01 13:50 | 49.95718 | 7.27230 | 1589 ft | 7 kts | 210° |
| 2026-05-01 13:50 | 49.95701 | 7.27212 | 1590 ft | 0 kts | 213° |
| 2026-05-01 13:50 | 49.95519 | 7.27035 | 1594 ft | 83 kts | 210° |
| 2026-05-01 13:51 | 49.94764 | 7.26277 | 1667 ft | 167 kts | 208° |
| 2026-05-01 13:51 | 49.93738 | 7.25226 | 2444 ft | 191 kts | 212° |
| 2026-05-01 13:51 | 49.92871 | 7.23607 | 3461 ft | 213 kts | 240° |
| 2026-05-01 13:51 | 49.92606 | 7.21291 | 4368 ft | 233 kts | 271° |
| 2026-05-01 13:52 | 49.93113 | 7.18849 | 5128 ft | 259 kts | 301° |
| 2026-05-01 13:52 | 49.94405 | 7.16768 | 5975 ft | 282 kts | 327° |
| 2026-05-01 13:52 | 49.96263 | 7.15730 | 7019 ft | 294 kts | 354° |
| 2026-05-01 13:52 | 49.98241 | 7.16041 | 8210 ft | 296 kts | 20° |
| 2026-05-01 13:53 | 49.99954 | 7.17634 | 9486 ft | 292 kts | 46° |
| 2026-05-01 13:53 | 50.01403 | 7.23163 | 11714 ft | 294 kts | 93° |
| 2026-05-01 13:53 | 50.01010 | 7.26319 | 12538 ft | 308 kts | 106° |
| 2026-05-01 13:54 | 50.00370 | 7.29541 | 13486 ft | 319 kts | 108° |
| 2026-05-01 13:54 | 49.99688 | 7.32842 | 14496 ft | 327 kts | 108° |
| 2026-05-01 13:54 | 49.98913 | 7.36163 | 15559 ft | 333 kts | 111° |
| 2026-05-01 13:54 | 49.98066 | 7.39515 | 16604 ft | 339 kts | 111° |
| 2026-05-01 13:55 | 49.97202 | 7.42908 | 17636 ft | 344 kts | 111° |
| 2026-05-01 13:55 | 49.96366 | 7.46215 | 18583 ft | 350 kts | 111° |
| 2026-05-01 13:55 | 49.95471 | 7.49775 | 19546 ft | 356 kts | 110° |
| 2026-05-01 13:55 | 49.94579 | 7.53336 | 20476 ft | 361 kts | 110° |
| 2026-05-01 13:56 | 49.93672 | 7.56959 | 21388 ft | 367 kts | 110° |
| 2026-05-01 13:56 | 49.92747 | 7.60658 | 22277 ft | 372 kts | 110° |
| 2026-05-01 13:56 | 49.91808 | 7.64410 | 23131 ft | 377 kts | 110° |
| 2026-05-01 13:56 | 49.90861 | 7.68192 | 23955 ft | 383 kts | 110° |
| 2026-05-01 13:57 | 49.89887 | 7.72074 | 24734 ft | 388 kts | 110° |
| 2026-05-01 13:57 | 49.89231 | 7.74684 | 25239 ft | 392 kts | 110° |
| 2026-05-01 13:57 | 49.87914 | 7.79917 | 26208 ft | 398 kts | 110° |
| 2026-05-01 13:57 | 49.86910 | 7.83904 | 26893 ft | 403 kts | 110° |
| 2026-05-01 13:58 | 49.85886 | 7.87956 | 27537 ft | 408 kts | 110° |
| 2026-05-01 13:58 | 49.84692 | 7.91921 | 28111 ft | 415 kts | 121° |
| 2026-05-01 13:58 | 49.82674 | 7.95137 | 28671 ft | 423 kts | 142° |
| 2026-05-01 13:58 | 49.80244 | 7.97662 | 29142 ft | 425 kts | 146° |
| 2026-05-01 13:59 | 49.77714 | 8.00135 | 29262 ft | 441 kts | 146° |
| 2026-05-01 13:59 | 49.75095 | 8.02740 | 29255 ft | 457 kts | 146° |
| 2026-05-01 13:59 | 49.69834 | 8.08153 | 29255 ft | 465 kts | 144° |
| 2026-05-01 14:00 | 49.64521 | 8.13749 | 29257 ft | 465 kts | 144° |
| 2026-05-01 14:00 | 49.59208 | 8.19378 | 29264 ft | 465 kts | 144° |
| 2026-05-01 14:01 | 49.53890 | 8.25019 | 29260 ft | 465 kts | 144° |
| 2026-05-01 14:01 | 49.48567 | 8.30648 | 29259 ft | 465 kts | 144° |
| 2026-05-01 14:02 | 49.43252 | 8.36245 | 29260 ft | 464 kts | 144° |
| 2026-05-01 14:02 | 49.37922 | 8.41797 | 29255 ft | 465 kts | 144° |
| 2026-05-01 14:03 | 49.32104 | 8.46005 | 29258 ft | 467 kts | 162° |
| 2026-05-01 14:03 | 49.25673 | 8.47284 | 29252 ft | 470 kts | 180° |
| 2026-05-01 14:04 | 49.19165 | 8.46492 | 29244 ft | 470 kts | 185° |
| 2026-05-01 14:04 | 49.13775 | 8.45706 | 29301 ft | 473 kts | 184° |
| 2026-05-01 14:05 | 49.09411 | 8.45111 | 30279 ft | 468 kts | 185° |
| 2026-05-01 14:05 | 49.06266 | 8.44506 | 31527 ft | 454 kts | 188° |
| 2026-05-01 14:05 | 49.03265 | 8.43655 | 32816 ft | 436 kts | 192° |
| 2026-05-01 14:05 | 49.00528 | 8.42709 | 33838 ft | 422 kts | 193° |
| 2026-05-01 14:06 | 48.97704 | 8.41725 | 34635 ft | 417 kts | 193° |
| 2026-05-01 14:06 | 48.94913 | 8.40750 | 35138 ft | 419 kts | 193° |
| 2026-05-01 14:06 | 48.89127 | 8.38733 | 35239 ft | 440 kts | 193° |
| 2026-05-01 14:07 | 48.86121 | 8.37689 | 35243 ft | 452 kts | 193° |
| 2026-05-01 14:07 | 48.82989 | 8.36604 | 35244 ft | 462 kts | 193° |
| 2026-05-01 14:08 | 48.73602 | 8.33280 | 35242 ft | 467 kts | 193° |
| 2026-05-01 14:08 | 48.67279 | 8.30954 | 35245 ft | 467 kts | 193° |
| 2026-05-01 14:09 | 48.60997 | 8.28663 | 35247 ft | 466 kts | 193° |
| 2026-05-01 14:09 | 48.54639 | 8.26642 | 35253 ft | 466 kts | 188° |
| 2026-05-01 14:10 | 48.48232 | 8.25790 | 35255 ft | 466 kts | 181° |
| 2026-05-01 14:10 | 48.41753 | 8.26189 | 35253 ft | 466 kts | 173° |
| 2026-05-01 14:11 | 48.35377 | 8.27636 | 35256 ft | 466 kts | 170° |
| 2026-05-01 14:11 | 48.25760 | 8.29990 | 35248 ft | 467 kts | 170° |
| 2026-05-01 14:12 | 48.19377 | 8.31527 | 35251 ft | 467 kts | 170° |
| 2026-05-01 14:12 | 48.12974 | 8.33072 | 35254 ft | 467 kts | 170° |
| 2026-05-01 14:13 | 48.07621 | 8.34372 | 35253 ft | 467 kts | 170° |
| 2026-05-01 14:13 | 48.00165 | 8.36179 | 35251 ft | 467 kts | 170° |
| 2026-05-01 14:14 | 47.93780 | 8.37722 | 35259 ft | 468 kts | 170° |
| 2026-05-01 14:14 | 47.87382 | 8.39278 | 35261 ft | 468 kts | 169° |
| 2026-05-01 14:15 | 47.81031 | 8.41422 | 35263 ft | 468 kts | 165° |
| 2026-05-01 14:15 | 47.74704 | 8.43787 | 35261 ft | 468 kts | 165° |
| 2026-05-01 14:16 | 47.68387 | 8.46139 | 35256 ft | 468 kts | 165° |
| 2026-05-01 14:16 | 47.62080 | 8.48480 | 35252 ft | 469 kts | 165° |
| 2026-05-01 14:17 | 47.55763 | 8.50820 | 35249 ft | 469 kts | 165° |
| 2026-05-01 14:17 | 47.49431 | 8.53099 | 35246 ft | 470 kts | 167° |
| 2026-05-01 14:18 | 47.43033 | 8.54571 | 35249 ft | 470 kts | 173° |
| 2026-05-01 14:18 | 47.37563 | 8.55027 | 35250 ft | 471 kts | 177° |
| 2026-05-01 14:19 | 47.29938 | 8.55450 | 35251 ft | 470 kts | 177° |
| 2026-05-01 14:19 | 47.23463 | 8.55819 | 35251 ft | 470 kts | 177° |
| 2026-05-01 14:20 | 47.13670 | 8.56381 | 35257 ft | 471 kts | 177° |
| 2026-05-01 14:21 | 47.07101 | 8.56757 | 35265 ft | 471 kts | 177° |
| 2026-05-01 14:21 | 47.00584 | 8.57131 | 35272 ft | 471 kts | 177° |
| 2026-05-01 14:22 | 46.90822 | 8.57687 | 35296 ft | 472 kts | 177° |
| 2026-05-01 14:22 | 46.84230 | 8.58061 | 35298 ft | 472 kts | 177° |
| 2026-05-01 14:23 | 46.77719 | 8.58431 | 35313 ft | 472 kts | 177° |
| 2026-05-01 14:23 | 46.71169 | 8.58803 | 35308 ft | 471 kts | 177° |
| 2026-05-01 14:24 | 46.64682 | 8.59169 | 35288 ft | 459 kts | 177° |
| 2026-05-01 14:24 | 46.61568 | 8.59349 | 35215 ft | 446 kts | 176° |
| 2026-05-01 14:24 | 46.58475 | 8.59693 | 34728 ft | 445 kts | 174° |
| 2026-05-01 14:25 | 46.55382 | 8.60129 | 34152 ft | 445 kts | 174° |
| 2026-05-01 14:25 | 46.52313 | 8.60571 | 33604 ft | 446 kts | 173° |
| 2026-05-01 14:25 | 46.49220 | 8.61013 | 33051 ft | 448 kts | 173° |
| 2026-05-01 14:25 | 46.46115 | 8.61341 | 32487 ft | 449 kts | 180° |
| 2026-05-01 14:26 | 46.43040 | 8.60695 | 31930 ft | 451 kts | 195° |
| 2026-05-01 14:26 | 46.37527 | 8.56555 | 30831 ft | 451 kts | 213° |
| 2026-05-01 14:26 | 46.34902 | 8.54113 | 30278 ft | 453 kts | 213° |
| 2026-05-01 14:27 | 46.32247 | 8.51668 | 29731 ft | 455 kts | 213° |
| 2026-05-01 14:27 | 46.29540 | 8.49289 | 29177 ft | 457 kts | 208° |
| 2026-05-01 14:27 | 46.26542 | 8.47787 | 28611 ft | 459 kts | 191° |
| 2026-05-01 14:28 | 46.20208 | 8.48052 | 27536 ft | 453 kts | 172° |
| 2026-05-01 14:28 | 46.17123 | 8.48574 | 26992 ft | 444 kts | 172° |
| 2026-05-01 14:28 | 46.14125 | 8.49061 | 26455 ft | 436 kts | 172° |
| 2026-05-01 14:28 | 46.11115 | 8.49785 | 25909 ft | 434 kts | 166° |
| 2026-05-01 14:29 | 46.08253 | 8.50953 | 25373 ft | 434 kts | 159° |
| 2026-05-01 14:29 | 46.05419 | 8.52437 | 24830 ft | 434 kts | 158° |
| 2026-05-01 14:30 | 45.96931 | 8.57083 | 23167 ft | 435 kts | 157° |
| 2026-05-01 14:30 | 45.94160 | 8.58576 | 22605 ft | 423 kts | 157° |
| 2026-05-01 14:30 | 45.91443 | 8.60050 | 22054 ft | 407 kts | 155° |
| 2026-05-01 14:31 | 45.86882 | 8.64122 | 20965 ft | 375 kts | 138° |
| 2026-05-01 14:31 | 45.84890 | 8.66462 | 20422 ft | 362 kts | 138° |
| 2026-05-01 14:31 | 45.83001 | 8.68707 | 19884 ft | 352 kts | 138° |
| 2026-05-01 14:31 | 45.81146 | 8.70890 | 19344 ft | 342 kts | 138° |
| 2026-05-01 14:32 | 45.79335 | 8.73002 | 18808 ft | 334 kts | 138° |
| 2026-05-01 14:32 | 45.78138 | 8.74391 | 18447 ft | 329 kts | 139° |
| 2026-05-01 14:32 | 45.75670 | 8.76900 | 17739 ft | 328 kts | 146° |
| 2026-05-01 14:32 | 45.73707 | 8.78500 | 17374 ft | 323 kts | 149° |
| 2026-05-01 14:33 | 45.71714 | 8.80034 | 17321 ft | 324 kts | 149° |
| 2026-05-01 14:33 | 45.69755 | 8.81532 | 17253 ft | 319 kts | 149° |
| 2026-05-01 14:33 | 45.67815 | 8.83015 | 16772 ft | 318 kts | 149° |
| 2026-05-01 14:33 | 45.65856 | 8.84548 | 16266 ft | 317 kts | 146° |
| 2026-05-01 14:34 | 45.64079 | 8.86366 | 15765 ft | 315 kts | 140° |
| 2026-05-01 14:34 | 45.62389 | 8.88280 | 15270 ft | 314 kts | 139° |
| 2026-05-01 14:34 | 45.60690 | 8.90239 | 14772 ft | 313 kts | 139° |
| 2026-05-01 14:34 | 45.59021 | 8.92174 | 14278 ft | 309 kts | 139° |
| 2026-05-01 14:35 | 45.57360 | 8.94100 | 13774 ft | 304 kts | 139° |
| 2026-05-01 14:35 | 45.55740 | 8.95980 | 13277 ft | 299 kts | 139° |
| 2026-05-01 14:35 | 45.54166 | 8.97810 | 12791 ft | 294 kts | 139° |
| 2026-05-01 14:35 | 45.52580 | 8.99649 | 12294 ft | 290 kts | 138° |
| 2026-05-01 14:36 | 45.50922 | 9.01248 | 11767 ft | 290 kts | 155° |
| 2026-05-01 14:36 | 45.48945 | 9.01597 | 11174 ft | 293 kts | 187° |
| 2026-05-01 14:36 | 45.46991 | 9.00974 | 10600 ft | 291 kts | 193° |
| 2026-05-01 14:36 | 45.45045 | 9.00267 | 10007 ft | 285 kts | 193° |
| 2026-05-01 14:37 | 45.43140 | 8.99627 | 9418 ft | 280 kts | 192° |
| 2026-05-01 14:37 | 45.41268 | 8.99051 | 8836 ft | 275 kts | 191° |
| 2026-05-01 14:37 | 45.39398 | 8.98514 | 8245 ft | 271 kts | 190° |
| 2026-05-01 14:37 | 45.37581 | 8.98013 | 7662 ft | 267 kts | 190° |
| 2026-05-01 14:38 | 45.35770 | 8.97523 | 7116 ft | 261 kts | 190° |
| 2026-05-01 14:38 | 45.34005 | 8.97047 | 6618 ft | 255 kts | 189° |
| 2026-05-01 14:38 | 45.32299 | 8.96589 | 6134 ft | 254 kts | 189° |
| 2026-05-01 14:38 | 45.30534 | 8.96299 | 5650 ft | 253 kts | 178° |
| 2026-05-01 14:39 | 45.28831 | 8.96564 | 5383 ft | 246 kts | 169° |
| 2026-05-01 14:39 | 45.27124 | 8.96913 | 5126 ft | 248 kts | 179° |
| 2026-05-01 14:39 | 45.25523 | 8.96163 | 4959 ft | 244 kts | 218° |
| 2026-05-01 14:39 | 45.24586 | 8.94258 | 4841 ft | 240 kts | 252° |
| 2026-05-01 14:40 | 45.24417 | 8.91919 | 4714 ft | 239 kts | 279° |
| 2026-05-01 14:40 | 45.24992 | 8.89736 | 4585 ft | 236 kts | 306° |
| 2026-05-01 14:40 | 45.26172 | 8.88181 | 4461 ft | 232 kts | 333° |
| 2026-05-01 14:40 | 45.27647 | 8.87289 | 4345 ft | 231 kts | 341° |
| 2026-05-01 14:41 | 45.29166 | 8.86469 | 4228 ft | 239 kts | 340° |
| 2026-05-01 14:41 | 45.30721 | 8.85611 | 4106 ft | 240 kts | 340° |
| 2026-05-01 14:41 | 45.32273 | 8.84727 | 3977 ft | 240 kts | 339° |
| 2026-05-01 14:41 | 45.33821 | 8.83828 | 3934 ft | 240 kts | 339° |
| 2026-05-01 14:42 | 45.35361 | 8.82922 | 3932 ft | 240 kts | 339° |
| 2026-05-01 14:42 | 45.36922 | 8.82000 | 3929 ft | 240 kts | 339° |
| 2026-05-01 14:42 | 45.38451 | 8.81095 | 3929 ft | 240 kts | 339° |
| 2026-05-01 14:42 | 45.39998 | 8.80178 | 3932 ft | 241 kts | 339° |
| 2026-05-01 14:43 | 45.41512 | 8.79339 | 3924 ft | 227 kts | 344° |
| 2026-05-01 14:43 | 45.43022 | 8.78813 | 3928 ft | 220 kts | 350° |
| 2026-05-01 14:43 | 45.44524 | 8.78399 | 3933 ft | 220 kts | 351° |
| 2026-05-01 14:43 | 45.46028 | 8.77998 | 3936 ft | 221 kts | 351° |
| 2026-05-01 14:44 | 45.47529 | 8.77597 | 3936 ft | 222 kts | 351° |
| 2026-05-01 14:44 | 45.50486 | 8.76794 | 3551 ft | 211 kts | 351° |
| 2026-05-01 14:44 | 45.51900 | 8.76406 | 3214 ft | 207 kts | 351° |
| 2026-05-01 14:45 | 45.53310 | 8.76019 | 2783 ft | 207 kts | 351° |
| 2026-05-01 14:45 | 45.56119 | 8.75247 | 2180 ft | 220 kts | 350° |
| 2026-05-01 14:45 | 45.57702 | 8.74818 | 2861 ft | 225 kts | 350° |
| 2026-05-01 14:46 | 45.59287 | 8.74378 | 3566 ft | 239 kts | 350° |
| 2026-05-01 14:46 | 45.62587 | 8.73493 | 3774 ft | 241 kts | 351° |
| 2026-05-01 14:46 | 45.64249 | 8.73293 | 3849 ft | 242 kts | 4° |
| 2026-05-01 14:47 | 45.65875 | 8.73878 | 3903 ft | 241 kts | 24° |
| 2026-05-01 14:47 | 45.67353 | 8.74884 | 3923 ft | 234 kts | 28° |
| 2026-05-01 14:47 | 45.68808 | 8.75952 | 3936 ft | 232 kts | 30° |